Aviation Digital Data Service (ADDS)

Output produced by METARs form (0037 UTC 20 April 2019)
found at http://www.aviationweather.gov/metar/data/
 
METAR text: EDDT 200020Z VRB02KT CAVOK 09/M01 Q1032
Conditions at: EDDT (BERLIN/TEGEL (FA, DE) observed 0020 UTC 20 April 2019
Temperature: 9.0°C (48°F)
Dewpoint: -1.0°C (30°F) [RH = 49%]
Pressure (altimeter): 30.47 inches Hg (1032.0 mb)
Winds: variable direction winds at 2 MPH (2 knots; 1.0 m/s)
Visibility: 6 or more miles (10+ km)
Ceiling: ceiling and visibility are OK
Clouds: unknown
Weather: no significant weather observed at this time

METAR text: EDDT 192350Z 07004KT 040V120 CAVOK 09/M01 Q1032
Conditions at: EDDT (BERLIN/TEGEL (FA, DE) observed 2350 UTC 19 April 2019
Temperature: 9.0°C (48°F)
Dewpoint: -1.0°C (30°F) [RH = 49%]
Pressure (altimeter): 30.47 inches Hg (1032.0 mb)
Winds: from the ENE (70 degrees) at 5 MPH (4 knots; 2.1 m/s)
Visibility: 6 or more miles (10+ km)
Ceiling: ceiling and visibility are OK
Clouds: unknown
Weather: no significant weather observed at this time

METAR text: EDDT 192320Z 06003KT 350V110 CAVOK 10/M01 Q1032
Conditions at: EDDT (BERLIN/TEGEL (FA, DE) observed 2320 UTC 19 April 2019
Temperature: 10.0°C (50°F)
Dewpoint: -1.0°C (30°F) [RH = 46%]
Pressure (altimeter): 30.47 inches Hg (1032.0 mb)
Winds: from the ENE (60 degrees) at 3 MPH (3 knots; 1.5 m/s)
Visibility: 6 or more miles (10+ km)
Ceiling: ceiling and visibility are OK
Clouds: unknown
Weather: no significant weather observed at this time

METAR text: EDDT 192250Z 05004KT 010V080 CAVOK 11/M01 Q1032
Conditions at: EDDT (BERLIN/TEGEL (FA, DE) observed 2250 UTC 19 April 2019
Temperature: 11.0°C (52°F)
Dewpoint: -1.0°C (30°F) [RH = 43%]
Pressure (altimeter): 30.47 inches Hg (1032.0 mb)
Winds: from the NE (50 degrees) at 5 MPH (4 knots; 2.1 m/s)
Visibility: 6 or more miles (10+ km)
Ceiling: ceiling and visibility are OK
Clouds: unknown
Weather: no significant weather observed at this time

METAR text: EDDT 192220Z 03005KT 350V070 CAVOK 11/M02 Q1032
Conditions at: EDDT (BERLIN/TEGEL (FA, DE) observed 2220 UTC 19 April 2019
Temperature: 11.0°C (52°F)
Dewpoint: -2.0°C (28°F) [RH = 40%]
Pressure (altimeter): 30.47 inches Hg (1032.0 mb)
Winds: from the NNE (30 degrees) at 6 MPH (5 knots; 2.6 m/s)
Visibility: 6 or more miles (10+ km)
Ceiling: ceiling and visibility are OK
Clouds: unknown
Weather: no significant weather observed at this time

METAR text: EDDT 192150Z 03006KT 360V060 CAVOK 12/M02 Q1032
Conditions at: EDDT (BERLIN/TEGEL (FA, DE) observed 2150 UTC 19 April 2019
Temperature: 12.0°C (54°F)
Dewpoint: -2.0°C (28°F) [RH = 38%]
Pressure (altimeter): 30.47 inches Hg (1032.0 mb)
Winds: from the NNE (30 degrees) at 7 MPH (6 knots; 3.1 m/s)
Visibility: 6 or more miles (10+ km)
Ceiling: ceiling and visibility are OK
Clouds: unknown
Weather: no significant weather observed at this time

METAR text: EDDT 192120Z 04005KT 010V080 CAVOK 13/M02 Q1032
Conditions at: EDDT (BERLIN/TEGEL (FA, DE) observed 2120 UTC 19 April 2019
Temperature: 13.0°C (55°F)
Dewpoint: -2.0°C (28°F) [RH = 35%]
Pressure (altimeter): 30.47 inches Hg (1032.0 mb)
Winds: from the NE (40 degrees) at 6 MPH (5 knots; 2.6 m/s)
Visibility: 6 or more miles (10+ km)
Ceiling: ceiling and visibility are OK
Clouds: unknown
Weather: no significant weather observed at this time

METAR text: EDDT 192050Z 03004KT 340V060 CAVOK 13/M02 Q1032 NOSIG
Conditions at: EDDT (BERLIN/TEGEL (FA, DE) observed 2050 UTC 19 April 2019
Temperature: 13.0°C (55°F)
Dewpoint: -2.0°C (28°F) [RH = 35%]
Pressure (altimeter): 30.47 inches Hg (1032.0 mb)
Winds: from the NNE (30 degrees) at 5 MPH (4 knots; 2.1 m/s)
Visibility: 6 or more miles (10+ km)
Ceiling: ceiling and visibility are OK
Clouds: unknown
Weather: no significant weather observed at this time

METAR text: EDDT 192020Z 03006KT 360V070 CAVOK 14/M02 Q1032 NOSIG
Conditions at: EDDT (BERLIN/TEGEL (FA, DE) observed 2020 UTC 19 April 2019
Temperature: 14.0°C (57°F)
Dewpoint: -2.0°C (28°F) [RH = 33%]
Pressure (altimeter): 30.47 inches Hg (1032.0 mb)
Winds: from the NNE (30 degrees) at 7 MPH (6 knots; 3.1 m/s)
Visibility: 6 or more miles (10+ km)
Ceiling: ceiling and visibility are OK
Clouds: unknown
Weather: no significant weather observed at this time

METAR text: EDDT 191950Z 04007KT 010V090 CAVOK 15/M02 Q1032 NOSIG
Conditions at: EDDT (BERLIN/TEGEL (FA, DE) observed 1950 UTC 19 April 2019
Temperature: 15.0°C (59°F)
Dewpoint: -2.0°C (28°F) [RH = 31%]
Pressure (altimeter): 30.47 inches Hg (1032.0 mb)
Winds: from the NE (40 degrees) at 8 MPH (7 knots; 3.6 m/s)
Visibility: 6 or more miles (10+ km)
Ceiling: ceiling and visibility are OK
Clouds: unknown
Weather: no significant weather observed at this time

METAR text: EDDT 191920Z 04007KT 360V080 CAVOK 16/M02 Q1032 NOSIG
Conditions at: EDDT (BERLIN/TEGEL (FA, DE) observed 1920 UTC 19 April 2019
Temperature: 16.0°C (61°F)
Dewpoint: -2.0°C (28°F) [RH = 29%]
Pressure (altimeter): 30.47 inches Hg (1032.0 mb)
Winds: from the NE (40 degrees) at 8 MPH (7 knots; 3.6 m/s)
Visibility: 6 or more miles (10+ km)
Ceiling: ceiling and visibility are OK
Clouds: unknown
Weather: no significant weather observed at this time

METAR text: EDDT 191850Z 04006KT 360V070 CAVOK 17/M02 Q1032 NOSIG
Conditions at: EDDT (BERLIN/TEGEL (FA, DE) observed 1850 UTC 19 April 2019
Temperature: 17.0°C (63°F)
Dewpoint: -2.0°C (28°F) [RH = 27%]
Pressure (altimeter): 30.47 inches Hg (1032.0 mb)
Winds: from the NE (40 degrees) at 7 MPH (6 knots; 3.1 m/s)
Visibility: 6 or more miles (10+ km)
Ceiling: ceiling and visibility are OK
Clouds: unknown
Weather: no significant weather observed at this time

METAR text: EDDT 191820Z 05007KT 010V090 CAVOK 18/M02 Q1032 NOSIG
Conditions at: EDDT (BERLIN/TEGEL (FA, DE) observed 1820 UTC 19 April 2019
Temperature: 18.0°C (64°F)
Dewpoint: -2.0°C (28°F) [RH = 26%]
Pressure (altimeter): 30.47 inches Hg (1032.0 mb)
Winds: from the NE (50 degrees) at 8 MPH (7 knots; 3.6 m/s)
Visibility: 6 or more miles (10+ km)
Ceiling: ceiling and visibility are OK
Clouds: unknown
Weather: no significant weather observed at this time

METAR text: EDDT 191750Z 05008KT 360V080 CAVOK 19/M01 Q1031 NOSIG
Conditions at: EDDT (BERLIN/TEGEL (FA, DE) observed 1750 UTC 19 April 2019
Temperature: 19.0°C (66°F)
Dewpoint: -1.0°C (30°F) [RH = 26%]
Pressure (altimeter): 30.44 inches Hg (1031.0 mb)
Winds: from the NE (50 degrees) at 9 MPH (8 knots; 4.1 m/s)
Visibility: 6 or more miles (10+ km)
Ceiling: ceiling and visibility are OK
Clouds: unknown
Weather: no significant weather observed at this time

METAR text: EDDT 191720Z 06007KT 020V110 CAVOK 20/M00 Q1031 NOSIG
Conditions at: EDDT (BERLIN/TEGEL (FA, DE) observed 1720 UTC 19 April 2019
Temperature: 20.0°C (68°F)
Dewpoint: 0.0°C (32°F) [RH = 26%]
Pressure (altimeter): 30.44 inches Hg (1031.0 mb)
Winds: from the ENE (60 degrees) at 8 MPH (7 knots; 3.6 m/s)
Visibility: 6 or more miles (10+ km)
Ceiling: ceiling and visibility are OK
Clouds: unknown
Weather: no significant weather observed at this time

METAR text: EDDT 191650Z 09009KT 040V110 CAVOK 21/M00 Q1031 NOSIG
Conditions at: EDDT (BERLIN/TEGEL (FA, DE) observed 1650 UTC 19 April 2019
Temperature: 21.0°C (70°F)
Dewpoint: 0.0°C (32°F) [RH = 25%]
Pressure (altimeter): 30.44 inches Hg (1031.0 mb)
Winds: from the E (90 degrees) at 10 MPH (9 knots; 4.6 m/s)
Visibility: 6 or more miles (10+ km)
Ceiling: ceiling and visibility are OK
Clouds: unknown
Weather: no significant weather observed at this time

METAR text: EDDT 191620Z 06007KT 030V120 CAVOK 21/01 Q1031 NOSIG
Conditions at: EDDT (BERLIN/TEGEL (FA, DE) observed 1620 UTC 19 April 2019
Temperature: 21.0°C (70°F)
Dewpoint: 1.0°C (34°F) [RH = 26%]
Pressure (altimeter): 30.44 inches Hg (1031.0 mb)
Winds: from the ENE (60 degrees) at 8 MPH (7 knots; 3.6 m/s)
Visibility: 6 or more miles (10+ km)
Ceiling: ceiling and visibility are OK
Clouds: unknown
Weather: no significant weather observed at this time

METAR text: EDDT 191550Z 08007KT 010V120 CAVOK 22/01 Q1031 NOSIG
Conditions at: EDDT (BERLIN/TEGEL (FA, DE) observed 1550 UTC 19 April 2019
Temperature: 22.0°C (72°F)
Dewpoint: 1.0°C (34°F) [RH = 25%]
Pressure (altimeter): 30.44 inches Hg (1031.0 mb)
Winds: from the E (80 degrees) at 8 MPH (7 knots; 3.6 m/s)
Visibility: 6 or more miles (10+ km)
Ceiling: ceiling and visibility are OK
Clouds: unknown
Weather: no significant weather observed at this time

METAR text: EDDT 191520Z 08006KT 010V120 CAVOK 22/01 Q1031 NOSIG
Conditions at: EDDT (BERLIN/TEGEL (FA, DE) observed 1520 UTC 19 April 2019
Temperature: 22.0°C (72°F)
Dewpoint: 1.0°C (34°F) [RH = 25%]
Pressure (altimeter): 30.44 inches Hg (1031.0 mb)
Winds: from the E (80 degrees) at 7 MPH (6 knots; 3.1 m/s)
Visibility: 6 or more miles (10+ km)
Ceiling: ceiling and visibility are OK
Clouds: unknown
Weather: no significant weather observed at this time

METAR text: EDDT 191450Z 09009KT 030V130 CAVOK 22/00 Q1031 NOSIG
Conditions at: EDDT (BERLIN/TEGEL (FA, DE) observed 1450 UTC 19 April 2019
Temperature: 22.0°C (72°F)
Dewpoint: 0.0°C (32°F) [RH = 23%]
Pressure (altimeter): 30.44 inches Hg (1031.0 mb)
Winds: from the E (90 degrees) at 10 MPH (9 knots; 4.6 m/s)
Visibility: 6 or more miles (10+ km)
Ceiling: ceiling and visibility are OK
Clouds: unknown
Weather: no significant weather observed at this time

METAR text: EDDT 191420Z 10007KT 060V150 CAVOK 22/M01 Q1032 NOSIG
Conditions at: EDDT (BERLIN/TEGEL (FA, DE) observed 1420 UTC 19 April 2019
Temperature: 22.0°C (72°F)
Dewpoint: -1.0°C (30°F) [RH = 21%]
Pressure (altimeter): 30.47 inches Hg (1032.0 mb)
Winds: from the E (100 degrees) at 8 MPH (7 knots; 3.6 m/s)
Visibility: 6 or more miles (10+ km)
Ceiling: ceiling and visibility are OK
Clouds: unknown
Weather: no significant weather observed at this time

METAR text: EDDT 191350Z 09008KT 010V160 CAVOK 22/M01 Q1032 NOSIG
Conditions at: EDDT (BERLIN/TEGEL (FA, DE) observed 1350 UTC 19 April 2019
Temperature: 22.0°C (72°F)
Dewpoint: -1.0°C (30°F) [RH = 21%]
Pressure (altimeter): 30.47 inches Hg (1032.0 mb)
Winds: from the E (90 degrees) at 9 MPH (8 knots; 4.1 m/s)
Visibility: 6 or more miles (10+ km)
Ceiling: ceiling and visibility are OK
Clouds: unknown
Weather: no significant weather observed at this time

METAR text: EDDT 191320Z 07009KT 020V140 CAVOK 22/M00 Q1032 NOSIG
Conditions at: EDDT (BERLIN/TEGEL (FA, DE) observed 1320 UTC 19 April 2019
Temperature: 22.0°C (72°F)
Dewpoint: 0.0°C (32°F) [RH = 23%]
Pressure (altimeter): 30.47 inches Hg (1032.0 mb)
Winds: from the ENE (70 degrees) at 10 MPH (9 knots; 4.6 m/s)
Visibility: 6 or more miles (10+ km)
Ceiling: ceiling and visibility are OK
Clouds: unknown
Weather: no significant weather observed at this time

METAR text: EDDT 191250Z 07007KT 020V160 CAVOK 22/M01 Q1032 NOSIG
Conditions at: EDDT (BERLIN/TEGEL (FA, DE) observed 1250 UTC 19 April 2019
Temperature: 22.0°C (72°F)
Dewpoint: -1.0°C (30°F) [RH = 21%]
Pressure (altimeter): 30.47 inches Hg (1032.0 mb)
Winds: from the ENE (70 degrees) at 8 MPH (7 knots; 3.6 m/s)
Visibility: 6 or more miles (10+ km)
Ceiling: ceiling and visibility are OK
Clouds: unknown
Weather: no significant weather observed at this time

METAR text: EDDT 191220Z 09008KT 040V140 CAVOK 22/M00 Q1033 NOSIG
Conditions at: EDDT (BERLIN/TEGEL (FA, DE) observed 1220 UTC 19 April 2019
Temperature: 22.0°C (72°F)
Dewpoint: 0.0°C (32°F) [RH = 23%]
Pressure (altimeter): 30.50 inches Hg (1033.0 mb)
Winds: from the E (90 degrees) at 9 MPH (8 knots; 4.1 m/s)
Visibility: 6 or more miles (10+ km)
Ceiling: ceiling and visibility are OK
Clouds: unknown
Weather: no significant weather observed at this time

METAR text: EDDT 191150Z 11007KT 020V170 CAVOK 22/M01 Q1033 NOSIG
Conditions at: EDDT (BERLIN/TEGEL (FA, DE) observed 1150 UTC 19 April 2019
Temperature: 22.0°C (72°F)
Dewpoint: -1.0°C (30°F) [RH = 21%]
Pressure (altimeter): 30.50 inches Hg (1033.0 mb)
Winds: from the ESE (110 degrees) at 8 MPH (7 knots; 3.6 m/s)
Visibility: 6 or more miles (10+ km)
Ceiling: ceiling and visibility are OK
Clouds: unknown
Weather: no significant weather observed at this time

METAR text: EDDT 191120Z 07008KT 350V140 CAVOK 22/00 Q1033 NOSIG
Conditions at: EDDT (BERLIN/TEGEL (FA, DE) observed 1120 UTC 19 April 2019
Temperature: 22.0°C (72°F)
Dewpoint: 0.0°C (32°F) [RH = 23%]
Pressure (altimeter): 30.50 inches Hg (1033.0 mb)
Winds: from the ENE (70 degrees) at 9 MPH (8 knots; 4.1 m/s)
Visibility: 6 or more miles (10+ km)
Ceiling: ceiling and visibility are OK
Clouds: unknown
Weather: no significant weather observed at this time

METAR text: EDDT 191050Z 11009KT 070V170 CAVOK 21/00 Q1033 NOSIG
Conditions at: EDDT (BERLIN/TEGEL (FA, DE) observed 1050 UTC 19 April 2019
Temperature: 21.0°C (70°F)
Dewpoint: 0.0°C (32°F) [RH = 25%]
Pressure (altimeter): 30.50 inches Hg (1033.0 mb)
Winds: from the ESE (110 degrees) at 10 MPH (9 knots; 4.6 m/s)
Visibility: 6 or more miles (10+ km)
Ceiling: ceiling and visibility are OK
Clouds: unknown
Weather: no significant weather observed at this time

METAR text: EDDT 191020Z 08008KT 040V170 CAVOK 21/M01 Q1033 NOSIG
Conditions at: EDDT (BERLIN/TEGEL (FA, DE) observed 1020 UTC 19 April 2019
Temperature: 21.0°C (70°F)
Dewpoint: -1.0°C (30°F) [RH = 23%]
Pressure (altimeter): 30.50 inches Hg (1033.0 mb)
Winds: from the E (80 degrees) at 9 MPH (8 knots; 4.1 m/s)
Visibility: 6 or more miles (10+ km)
Ceiling: ceiling and visibility are OK
Clouds: unknown
Weather: no significant weather observed at this time

METAR text: EDDT 190950Z 09007KT 020V140 CAVOK 21/M00 Q1033 NOSIG
Conditions at: EDDT (BERLIN/TEGEL (FA, DE) observed 0950 UTC 19 April 2019
Temperature: 21.0°C (70°F)
Dewpoint: 0.0°C (32°F) [RH = 25%]
Pressure (altimeter): 30.50 inches Hg (1033.0 mb)
Winds: from the E (90 degrees) at 8 MPH (7 knots; 3.6 m/s)
Visibility: 6 or more miles (10+ km)
Ceiling: ceiling and visibility are OK
Clouds: unknown
Weather: no significant weather observed at this time

METAR text: EDDT 190920Z 10006KT 060V150 CAVOK 20/01 Q1034 NOSIG
Conditions at: EDDT (BERLIN/TEGEL (FA, DE) observed 0920 UTC 19 April 2019
Temperature: 20.0°C (68°F)
Dewpoint: 1.0°C (34°F) [RH = 28%]
Pressure (altimeter): 30.53 inches Hg (1034.0 mb)
Winds: from the E (100 degrees) at 7 MPH (6 knots; 3.1 m/s)
Visibility: 6 or more miles (10+ km)
Ceiling: ceiling and visibility are OK
Clouds: unknown
Weather: no significant weather observed at this time

METAR text: EDDT 190850Z 07005KT 020V170 CAVOK 19/02 Q1034 NOSIG
Conditions at: EDDT (BERLIN/TEGEL (FA, DE) observed 0850 UTC 19 April 2019
Temperature: 19.0°C (66°F)
Dewpoint: 2.0°C (36°F) [RH = 32%]
Pressure (altimeter): 30.53 inches Hg (1034.0 mb)
Winds: from the ENE (70 degrees) at 6 MPH (5 knots; 2.6 m/s)
Visibility: 6 or more miles (10+ km)
Ceiling: ceiling and visibility are OK
Clouds: unknown
Weather: no significant weather observed at this time

METAR text: EDDT 190820Z 07005KT 340V120 CAVOK 18/02 Q1034 NOSIG
Conditions at: EDDT (BERLIN/TEGEL (FA, DE) observed 0820 UTC 19 April 2019
Temperature: 18.0°C (64°F)
Dewpoint: 2.0°C (36°F) [RH = 34%]
Pressure (altimeter): 30.53 inches Hg (1034.0 mb)
Winds: from the ENE (70 degrees) at 6 MPH (5 knots; 2.6 m/s)
Visibility: 6 or more miles (10+ km)
Ceiling: ceiling and visibility are OK
Clouds: unknown
Weather: no significant weather observed at this time

METAR text: EDDT 190750Z 09005KT 010V140 CAVOK 16/02 Q1034 NOSIG
Conditions at: EDDT (BERLIN/TEGEL (FA, DE) observed 0750 UTC 19 April 2019
Temperature: 16.0°C (61°F)
Dewpoint: 2.0°C (36°F) [RH = 39%]
Pressure (altimeter): 30.53 inches Hg (1034.0 mb)
Winds: from the E (90 degrees) at 6 MPH (5 knots; 2.6 m/s)
Visibility: 6 or more miles (10+ km)
Ceiling: ceiling and visibility are OK
Clouds: unknown
Weather: no significant weather observed at this time

METAR text: EDDT 190720Z 08005KT 040V120 CAVOK 15/01 Q1033 NOSIG
Conditions at: EDDT (BERLIN/TEGEL (FA, DE) observed 0720 UTC 19 April 2019
Temperature: 15.0°C (59°F)
Dewpoint: 1.0°C (34°F) [RH = 39%]
Pressure (altimeter): 30.50 inches Hg (1033.0 mb)
Winds: from the E (80 degrees) at 6 MPH (5 knots; 2.6 m/s)
Visibility: 6 or more miles (10+ km)
Ceiling: ceiling and visibility are OK
Clouds: unknown
Weather: no significant weather observed at this time

METAR text: EDDT 190650Z 08004KT 050V140 CAVOK 14/01 Q1033 NOSIG
Conditions at: EDDT (BERLIN/TEGEL (FA, DE) observed 0650 UTC 19 April 2019
Temperature: 14.0°C (57°F)
Dewpoint: 1.0°C (34°F) [RH = 41%]
Pressure (altimeter): 30.50 inches Hg (1033.0 mb)
Winds: from the E (80 degrees) at 5 MPH (4 knots; 2.1 m/s)
Visibility: 6 or more miles (10+ km)
Ceiling: ceiling and visibility are OK
Clouds: unknown
Weather: no significant weather observed at this time

METAR text: EDDT 190620Z 09004KT 020V120 CAVOK 12/01 Q1033 NOSIG
Conditions at: EDDT (BERLIN/TEGEL (FA, DE) observed 0620 UTC 19 April 2019
Temperature: 12.0°C (54°F)
Dewpoint: 1.0°C (34°F) [RH = 47%]
Pressure (altimeter): 30.50 inches Hg (1033.0 mb)
Winds: from the E (90 degrees) at 5 MPH (4 knots; 2.1 m/s)
Visibility: 6 or more miles (10+ km)
Ceiling: ceiling and visibility are OK
Clouds: unknown
Weather: no significant weather observed at this time

METAR text: EDDT 190550Z 07004KT 020V160 CAVOK 11/01 Q1033 NOSIG
Conditions at: EDDT (BERLIN/TEGEL (FA, DE) observed 0550 UTC 19 April 2019
Temperature: 11.0°C (52°F)
Dewpoint: 1.0°C (34°F) [RH = 50%]
Pressure (altimeter): 30.50 inches Hg (1033.0 mb)
Winds: from the ENE (70 degrees) at 5 MPH (4 knots; 2.1 m/s)
Visibility: 6 or more miles (10+ km)
Ceiling: ceiling and visibility are OK
Clouds: unknown
Weather: no significant weather observed at this time

METAR text: EDDT 190520Z 07005KT 040V110 CAVOK 10/01 Q1033 NOSIG
Conditions at: EDDT (BERLIN/TEGEL (FA, DE) observed 0520 UTC 19 April 2019
Temperature: 10.0°C (50°F)
Dewpoint: 1.0°C (34°F) [RH = 53%]
Pressure (altimeter): 30.50 inches Hg (1033.0 mb)
Winds: from the ENE (70 degrees) at 6 MPH (5 knots; 2.6 m/s)
Visibility: 6 or more miles (10+ km)
Ceiling: ceiling and visibility are OK
Clouds: unknown
Weather: no significant weather observed at this time

METAR text: EDDT 190450Z 07004KT 030V100 CAVOK 09/01 Q1033 NOSIG
Conditions at: EDDT (BERLIN/TEGEL (FA, DE) observed 0450 UTC 19 April 2019
Temperature: 9.0°C (48°F)
Dewpoint: 1.0°C (34°F) [RH = 57%]
Pressure (altimeter): 30.50 inches Hg (1033.0 mb)
Winds: from the ENE (70 degrees) at 5 MPH (4 knots; 2.1 m/s)
Visibility: 6 or more miles (10+ km)
Ceiling: ceiling and visibility are OK
Clouds: unknown
Weather: no significant weather observed at this time

METAR text: EDDT 190420Z 06004KT 020V090 CAVOK 09/01 Q1033 NOSIG
Conditions at: EDDT (BERLIN/TEGEL (FA, DE) observed 0420 UTC 19 April 2019
Temperature: 9.0°C (48°F)
Dewpoint: 1.0°C (34°F) [RH = 57%]
Pressure (altimeter): 30.50 inches Hg (1033.0 mb)
Winds: from the ENE (60 degrees) at 5 MPH (4 knots; 2.1 m/s)
Visibility: 6 or more miles (10+ km)
Ceiling: ceiling and visibility are OK
Clouds: unknown
Weather: no significant weather observed at this time

METAR text: EDDT 190350Z 07005KT 040V110 CAVOK 09/01 Q1032 NOSIG
Conditions at: EDDT (BERLIN/TEGEL (FA, DE) observed 0350 UTC 19 April 2019
Temperature: 9.0°C (48°F)
Dewpoint: 1.0°C (34°F) [RH = 57%]
Pressure (altimeter): 30.47 inches Hg (1032.0 mb)
Winds: from the ENE (70 degrees) at 6 MPH (5 knots; 2.6 m/s)
Visibility: 6 or more miles (10+ km)
Ceiling: ceiling and visibility are OK
Clouds: unknown
Weather: no significant weather observed at this time

METAR text: EDDT 190320Z 07004KT CAVOK 09/01 Q1032 NOSIG
Conditions at: EDDT (BERLIN/TEGEL (FA, DE) observed 0320 UTC 19 April 2019
Temperature: 9.0°C (48°F)
Dewpoint: 1.0°C (34°F) [RH = 57%]
Pressure (altimeter): 30.47 inches Hg (1032.0 mb)
Winds: from the ENE (70 degrees) at 5 MPH (4 knots; 2.1 m/s)
Visibility: 6 or more miles (10+ km)
Ceiling: ceiling and visibility are OK
Clouds: unknown
Weather: no significant weather observed at this time

METAR text: EDDT 190250Z 08005KT 040V100 CAVOK 09/01 Q1032 NOSIG
Conditions at: EDDT (BERLIN/TEGEL (FA, DE) observed 0250 UTC 19 April 2019
Temperature: 9.0°C (48°F)
Dewpoint: 1.0°C (34°F) [RH = 57%]
Pressure (altimeter): 30.47 inches Hg (1032.0 mb)
Winds: from the E (80 degrees) at 6 MPH (5 knots; 2.6 m/s)
Visibility: 6 or more miles (10+ km)
Ceiling: ceiling and visibility are OK
Clouds: unknown
Weather: no significant weather observed at this time

METAR text: EDDT 190220Z 08005KT 040V110 CAVOK 10/01 Q1032
Conditions at: EDDT (BERLIN/TEGEL (FA, DE) observed 0220 UTC 19 April 2019
Temperature: 10.0°C (50°F)
Dewpoint: 1.0°C (34°F) [RH = 53%]
Pressure (altimeter): 30.47 inches Hg (1032.0 mb)
Winds: from the E (80 degrees) at 6 MPH (5 knots; 2.6 m/s)
Visibility: 6 or more miles (10+ km)
Ceiling: ceiling and visibility are OK
Clouds: unknown
Weather: no significant weather observed at this time

METAR text: EDDT 190150Z 07005KT 040V100 CAVOK 10/02 Q1032
Conditions at: EDDT (BERLIN/TEGEL (FA, DE) observed 0150 UTC 19 April 2019
Temperature: 10.0°C (50°F)
Dewpoint: 2.0°C (36°F) [RH = 57%]
Pressure (altimeter): 30.47 inches Hg (1032.0 mb)
Winds: from the ENE (70 degrees) at 6 MPH (5 knots; 2.6 m/s)
Visibility: 6 or more miles (10+ km)
Ceiling: ceiling and visibility are OK
Clouds: unknown
Weather: no significant weather observed at this time

METAR text: EDDT 190120Z 06004KT 030V100 CAVOK 10/02 Q1032
Conditions at: EDDT (BERLIN/TEGEL (FA, DE) observed 0120 UTC 19 April 2019
Temperature: 10.0°C (50°F)
Dewpoint: 2.0°C (36°F) [RH = 57%]
Pressure (altimeter): 30.47 inches Hg (1032.0 mb)
Winds: from the ENE (60 degrees) at 5 MPH (4 knots; 2.1 m/s)
Visibility: 6 or more miles (10+ km)
Ceiling: ceiling and visibility are OK
Clouds: unknown
Weather: no significant weather observed at this time

METAR text: EDDT 190050Z 08003KT 040V120 CAVOK 10/03 Q1032
Conditions at: EDDT (BERLIN/TEGEL (FA, DE) observed 0050 UTC 19 April 2019
Temperature: 10.0°C (50°F)
Dewpoint: 3.0°C (37°F) [RH = 62%]
Pressure (altimeter): 30.47 inches Hg (1032.0 mb)
Winds: from the E (80 degrees) at 3 MPH (3 knots; 1.5 m/s)
Visibility: 6 or more miles (10+ km)
Ceiling: ceiling and visibility are OK
Clouds: unknown
Weather: no significant weather observed at this time

METAR text: EDDT 190020Z 06003KT 030V110 CAVOK 10/03 Q1032
Conditions at: EDDT (BERLIN/TEGEL (FA, DE) observed 0020 UTC 19 April 2019
Temperature: 10.0°C (50°F)
Dewpoint: 3.0°C (37°F) [RH = 62%]
Pressure (altimeter): 30.47 inches Hg (1032.0 mb)
Winds: from the ENE (60 degrees) at 3 MPH (3 knots; 1.5 m/s)
Visibility: 6 or more miles (10+ km)
Ceiling: ceiling and visibility are OK
Clouds: unknown
Weather: no significant weather observed at this time

METAR text: EDDT 182350Z 06003KT 020V100 CAVOK 11/03 Q1032
Conditions at: EDDT (BERLIN/TEGEL (FA, DE) observed 2350 UTC 18 April 2019
Temperature: 11.0°C (52°F)
Dewpoint: 3.0°C (37°F) [RH = 58%]
Pressure (altimeter): 30.47 inches Hg (1032.0 mb)
Winds: from the ENE (60 degrees) at 3 MPH (3 knots; 1.5 m/s)
Visibility: 6 or more miles (10+ km)
Ceiling: ceiling and visibility are OK
Clouds: unknown
Weather: no significant weather observed at this time

METAR text: EDDT 182320Z 06003KT 030V100 CAVOK 11/03 Q1032
Conditions at: EDDT (BERLIN/TEGEL (FA, DE) observed 2320 UTC 18 April 2019
Temperature: 11.0°C (52°F)
Dewpoint: 3.0°C (37°F) [RH = 58%]
Pressure (altimeter): 30.47 inches Hg (1032.0 mb)
Winds: from the ENE (60 degrees) at 3 MPH (3 knots; 1.5 m/s)
Visibility: 6 or more miles (10+ km)
Ceiling: ceiling and visibility are OK
Clouds: unknown
Weather: no significant weather observed at this time

METAR text: EDDT 182250Z 06004KT 030V100 CAVOK 12/03 Q1031
Conditions at: EDDT (BERLIN/TEGEL (FA, DE) observed 2250 UTC 18 April 2019
Temperature: 12.0°C (54°F)
Dewpoint: 3.0°C (37°F) [RH = 54%]
Pressure (altimeter): 30.44 inches Hg (1031.0 mb)
Winds: from the ENE (60 degrees) at 5 MPH (4 knots; 2.1 m/s)
Visibility: 6 or more miles (10+ km)
Ceiling: ceiling and visibility are OK
Clouds: unknown
Weather: no significant weather observed at this time

METAR text: EDDT 182220Z 05004KT 020V110 CAVOK 12/03 Q1031
Conditions at: EDDT (BERLIN/TEGEL (FA, DE) observed 2220 UTC 18 April 2019
Temperature: 12.0°C (54°F)
Dewpoint: 3.0°C (37°F) [RH = 54%]
Pressure (altimeter): 30.44 inches Hg (1031.0 mb)
Winds: from the NE (50 degrees) at 5 MPH (4 knots; 2.1 m/s)
Visibility: 6 or more miles (10+ km)
Ceiling: ceiling and visibility are OK
Clouds: unknown
Weather: no significant weather observed at this time

METAR text: EDDT 182150Z 05004KT 360V090 CAVOK 13/03 Q1031
Conditions at: EDDT (BERLIN/TEGEL (FA, DE) observed 2150 UTC 18 April 2019
Temperature: 13.0°C (55°F)
Dewpoint: 3.0°C (37°F) [RH = 51%]
Pressure (altimeter): 30.44 inches Hg (1031.0 mb)
Winds: from the NE (50 degrees) at 5 MPH (4 knots; 2.1 m/s)
Visibility: 6 or more miles (10+ km)
Ceiling: ceiling and visibility are OK
Clouds: unknown
Weather: no significant weather observed at this time

METAR text: EDDT 182120Z 05005KT CAVOK 13/03 Q1031
Conditions at: EDDT (BERLIN/TEGEL (FA, DE) observed 2120 UTC 18 April 2019
Temperature: 13.0°C (55°F)
Dewpoint: 3.0°C (37°F) [RH = 51%]
Pressure (altimeter): 30.44 inches Hg (1031.0 mb)
Winds: from the NE (50 degrees) at 6 MPH (5 knots; 2.6 m/s)
Visibility: 6 or more miles (10+ km)
Ceiling: ceiling and visibility are OK
Clouds: unknown
Weather: no significant weather observed at this time

METAR text: EDDT 182050Z 05005KT 020V080 CAVOK 14/02 Q1031 NOSIG
Conditions at: EDDT (BERLIN/TEGEL (FA, DE) observed 2050 UTC 18 April 2019
Temperature: 14.0°C (57°F)
Dewpoint: 2.0°C (36°F) [RH = 44%]
Pressure (altimeter): 30.44 inches Hg (1031.0 mb)
Winds: from the NE (50 degrees) at 6 MPH (5 knots; 2.6 m/s)
Visibility: 6 or more miles (10+ km)
Ceiling: ceiling and visibility are OK
Clouds: unknown
Weather: no significant weather observed at this time

METAR text: EDDT 182020Z 03005KT CAVOK 15/01 Q1031 NOSIG
Conditions at: EDDT (BERLIN/TEGEL (FA, DE) observed 2020 UTC 18 April 2019
Temperature: 15.0°C (59°F)
Dewpoint: 1.0°C (34°F) [RH = 39%]
Pressure (altimeter): 30.44 inches Hg (1031.0 mb)
Winds: from the NNE (30 degrees) at 6 MPH (5 knots; 2.6 m/s)
Visibility: 6 or more miles (10+ km)
Ceiling: ceiling and visibility are OK
Clouds: unknown
Weather: no significant weather observed at this time

METAR text: EDDT 181950Z 05004KT 010V070 CAVOK 16/01 Q1030 NOSIG
Conditions at: EDDT (BERLIN/TEGEL (FA, DE) observed 1950 UTC 18 April 2019
Temperature: 16.0°C (61°F)
Dewpoint: 1.0°C (34°F) [RH = 36%]
Pressure (altimeter): 30.41 inches Hg (1030.0 mb)
Winds: from the NE (50 degrees) at 5 MPH (4 knots; 2.1 m/s)
Visibility: 6 or more miles (10+ km)
Ceiling: ceiling and visibility are OK
Clouds: unknown
Weather: no significant weather observed at this time

METAR text: EDDT 181920Z 06004KT 030V090 CAVOK 17/01 Q1030 NOSIG
Conditions at: EDDT (BERLIN/TEGEL (FA, DE) observed 1920 UTC 18 April 2019
Temperature: 17.0°C (63°F)
Dewpoint: 1.0°C (34°F) [RH = 34%]
Pressure (altimeter): 30.41 inches Hg (1030.0 mb)
Winds: from the ENE (60 degrees) at 5 MPH (4 knots; 2.1 m/s)
Visibility: 6 or more miles (10+ km)
Ceiling: ceiling and visibility are OK
Clouds: unknown
Weather: no significant weather observed at this time

METAR text: EDDT 181850Z 07005KT 040V100 CAVOK 17/01 Q1030 NOSIG
Conditions at: EDDT (BERLIN/TEGEL (FA, DE) observed 1850 UTC 18 April 2019
Temperature: 17.0°C (63°F)
Dewpoint: 1.0°C (34°F) [RH = 34%]
Pressure (altimeter): 30.41 inches Hg (1030.0 mb)
Winds: from the ENE (70 degrees) at 6 MPH (5 knots; 2.6 m/s)
Visibility: 6 or more miles (10+ km)
Ceiling: ceiling and visibility are OK
Clouds: unknown
Weather: no significant weather observed at this time

METAR text: EDDT 181820Z 06005KT 020V090 CAVOK 18/01 Q1030 NOSIG
Conditions at: EDDT (BERLIN/TEGEL (FA, DE) observed 1820 UTC 18 April 2019
Temperature: 18.0°C (64°F)
Dewpoint: 1.0°C (34°F) [RH = 32%]
Pressure (altimeter): 30.41 inches Hg (1030.0 mb)
Winds: from the ENE (60 degrees) at 6 MPH (5 knots; 2.6 m/s)
Visibility: 6 or more miles (10+ km)
Ceiling: ceiling and visibility are OK
Clouds: unknown
Weather: no significant weather observed at this time

METAR text: EDDT 181750Z 07005KT 040V100 CAVOK 19/01 Q1030 NOSIG
Conditions at: EDDT (BERLIN/TEGEL (FA, DE) observed 1750 UTC 18 April 2019
Temperature: 19.0°C (66°F)
Dewpoint: 1.0°C (34°F) [RH = 30%]
Pressure (altimeter): 30.41 inches Hg (1030.0 mb)
Winds: from the ENE (70 degrees) at 6 MPH (5 knots; 2.6 m/s)
Visibility: 6 or more miles (10+ km)
Ceiling: ceiling and visibility are OK
Clouds: unknown
Weather: no significant weather observed at this time

METAR text: EDDT 181720Z 07007KT 040V100 CAVOK 20/00 Q1029 NOSIG
Conditions at: EDDT (BERLIN/TEGEL (FA, DE) observed 1720 UTC 18 April 2019
Temperature: 20.0°C (68°F)
Dewpoint: 0.0°C (32°F) [RH = 26%]
Pressure (altimeter): 30.38 inches Hg (1029.0 mb)
Winds: from the ENE (70 degrees) at 8 MPH (7 knots; 3.6 m/s)
Visibility: 6 or more miles (10+ km)
Ceiling: ceiling and visibility are OK
Clouds: unknown
Weather: no significant weather observed at this time

METAR text: EDDT 181650Z 07008KT 030V110 CAVOK 20/00 Q1029 NOSIG
Conditions at: EDDT (BERLIN/TEGEL (FA, DE) observed 1650 UTC 18 April 2019
Temperature: 20.0°C (68°F)
Dewpoint: 0.0°C (32°F) [RH = 26%]
Pressure (altimeter): 30.38 inches Hg (1029.0 mb)
Winds: from the ENE (70 degrees) at 9 MPH (8 knots; 4.1 m/s)
Visibility: 6 or more miles (10+ km)
Ceiling: ceiling and visibility are OK
Clouds: unknown
Weather: no significant weather observed at this time

METAR text: EDDT 181620Z 07008KT 010V110 CAVOK 21/M00 Q1029 NOSIG
Conditions at: EDDT (BERLIN/TEGEL (FA, DE) observed 1620 UTC 18 April 2019
Temperature: 21.0°C (70°F)
Dewpoint: 0.0°C (32°F) [RH = 25%]
Pressure (altimeter): 30.38 inches Hg (1029.0 mb)
Winds: from the ENE (70 degrees) at 9 MPH (8 knots; 4.1 m/s)
Visibility: 6 or more miles (10+ km)
Ceiling: ceiling and visibility are OK
Clouds: unknown
Weather: no significant weather observed at this time

METAR text: EDDT 181550Z 09011KT 060V120 CAVOK 21/M01 Q1029 NOSIG
Conditions at: EDDT (BERLIN/TEGEL (FA, DE) observed 1550 UTC 18 April 2019
Temperature: 21.0°C (70°F)
Dewpoint: -1.0°C (30°F) [RH = 23%]
Pressure (altimeter): 30.38 inches Hg (1029.0 mb)
Winds: from the E (90 degrees) at 13 MPH (11 knots; 5.7 m/s)
Visibility: 6 or more miles (10+ km)
Ceiling: ceiling and visibility are OK
Clouds: unknown
Weather: no significant weather observed at this time

METAR text: EDDT 181520Z 08010KT 050V140 CAVOK 21/M01 Q1029 NOSIG
Conditions at: EDDT (BERLIN/TEGEL (FA, DE) observed 1520 UTC 18 April 2019
Temperature: 21.0°C (70°F)
Dewpoint: -1.0°C (30°F) [RH = 23%]
Pressure (altimeter): 30.38 inches Hg (1029.0 mb)
Winds: from the E (80 degrees) at 12 MPH (10 knots; 5.1 m/s)
Visibility: 6 or more miles (10+ km)
Ceiling: ceiling and visibility are OK
Clouds: unknown
Weather: no significant weather observed at this time

METAR text: EDDT 181450Z 07011KT 030V110 CAVOK 21/M02 Q1029 NOSIG
Conditions at: EDDT (BERLIN/TEGEL (FA, DE) observed 1450 UTC 18 April 2019
Temperature: 21.0°C (70°F)
Dewpoint: -2.0°C (28°F) [RH = 21%]
Pressure (altimeter): 30.38 inches Hg (1029.0 mb)
Winds: from the ENE (70 degrees) at 13 MPH (11 knots; 5.7 m/s)
Visibility: 6 or more miles (10+ km)
Ceiling: ceiling and visibility are OK
Clouds: unknown
Weather: no significant weather observed at this time

METAR text: EDDT 181420Z 07010KT 020V130 CAVOK 21/M01 Q1029 TEMPO 09015G25KT
Conditions at: EDDT (BERLIN/TEGEL (FA, DE) observed 1420 UTC 18 April 2019
Temperature: 21.0°C (70°F)
Dewpoint: -1.0°C (30°F) [RH = 23%]
Pressure (altimeter): 30.38 inches Hg (1029.0 mb)
Winds: from the ENE (70 degrees) at 12 MPH (10 knots; 5.1 m/s)
Visibility: 6 or more miles (10+ km)
Ceiling: ceiling and visibility are OK
Clouds: unknown
Weather: no significant weather observed at this time

METAR text: EDDT 181350Z 10014KT 060V130 CAVOK 21/M01 Q1029 TEMPO 09015G25KT
Conditions at: EDDT (BERLIN/TEGEL (FA, DE) observed 1350 UTC 18 April 2019
Temperature: 21.0°C (70°F)
Dewpoint: -1.0°C (30°F) [RH = 23%]
Pressure (altimeter): 30.38 inches Hg (1029.0 mb)
Winds: from the E (100 degrees) at 16 MPH (14 knots; 7.2 m/s)
Visibility: 6 or more miles (10+ km)
Ceiling: ceiling and visibility are OK
Clouds: unknown
Weather: no significant weather observed at this time

METAR text: EDDT 181250Z 11014KT 050V140 CAVOK 21/M00 Q1030 TEMPO 09015G25KT
Conditions at: EDDT (BERLIN/TEGEL (FA, DE) observed 1250 UTC 18 April 2019
Temperature: 21.0°C (70°F)
Dewpoint: 0.0°C (32°F) [RH = 25%]
Pressure (altimeter): 30.41 inches Hg (1030.0 mb)
Winds: from the ESE (110 degrees) at 16 MPH (14 knots; 7.2 m/s)
Visibility: 6 or more miles (10+ km)
Ceiling: ceiling and visibility are OK
Clouds: unknown
Weather: no significant weather observed at this time

Forecast for: EDDT (BERLIN/TEGEL (FA, DE)
Text: TAF EDDT 192300Z 2000/2024 VRB03KT CAVOK
Forecast period: 0000 to 0700 UTC 20 April 2019
Forecast type: FROM: standard forecast or significant change
Winds: variable direction winds at 3 MPH (3 knots; 1.5 m/s)
Visibility: 6 or more miles 10+ km)
Ceiling: unknown
Clouds: missing
Weather: NSW  (no significant weather)
Text: BECMG 2007/2010 02006KT
Forecast period: 0700 to 1800 UTC 20 April 2019
Forecast type: BECOMING: Conditions expected to become as follows by 1000 UTC 20 April 2019
Winds: from the NNE (20 degrees) at 7 MPH (6 knots; 3.1 m/s)
Visibility: 6 or more miles 10+ km)
Ceiling: unknown
Clouds: missing
Weather: NSW  (no significant weather)
Text: BECMG 2018/2021 VRB03KT
Forecast period: 1800 UTC 20 April 2019 to 0000 UTC 21 April 2019
Forecast type: BECOMING: Conditions expected to become as follows by 2100 UTC 20 April 2019
Winds: variable direction winds at 3 MPH (3 knots; 1.5 m/s)
Visibility: 6 or more miles 10+ km)
Ceiling: unknown
Clouds: missing
Weather: NSW  (no significant weather)